sensor_id;sensor_type;location;lat;lon;timestamp;temperature;humidity
21481;DHT22;10902;48.158;8.634;2023-05-07T00:02:22;10.30;99.90
21481;DHT22;10902;48.158;8.634;2023-05-07T00:04:48;10.30;99.90
21481;DHT22;10902;48.158;8.634;2023-05-07T00:07:14;10.20;99.90
21481;DHT22;10902;48.158;8.634;2023-05-07T00:09:40;10.10;99.90
21481;DHT22;10902;48.158;8.634;2023-05-07T00:12:05;10.10;99.90
21481;DHT22;10902;48.158;8.634;2023-05-07T00:14:31;10.20;99.90
21481;DHT22;10902;48.158;8.634;2023-05-07T00:16:56;10.30;99.90
21481;DHT22;10902;48.158;8.634;2023-05-07T00:19:22;10.20;99.90
21481;DHT22;10902;48.158;8.634;2023-05-07T00:21:48;10.10;99.90
21481;DHT22;10902;48.158;8.634;2023-05-07T00:24:13;10.00;99.90
21481;DHT22;10902;48.158;8.634;2023-05-07T00:26:39;10.00;99.90
21481;DHT22;10902;48.158;8.634;2023-05-07T00:29:04;10.00;99.90
21481;DHT22;10902;48.158;8.634;2023-05-07T00:31:30;9.90;99.90
21481;DHT22;10902;48.158;8.634;2023-05-07T00:33:56;9.90;99.90
21481;DHT22;10902;48.158;8.634;2023-05-07T00:36:21;9.90;99.90
21481;DHT22;10902;48.158;8.634;2023-05-07T00:38:47;9.90;99.90
21481;DHT22;10902;48.158;8.634;2023-05-07T00:41:12;9.90;99.90
21481;DHT22;10902;48.158;8.634;2023-05-07T00:43:38;9.90;99.90
21481;DHT22;10902;48.158;8.634;2023-05-07T00:46:04;10.00;99.90
21481;DHT22;10902;48.158;8.634;2023-05-07T00:48:30;9.90;99.90
21481;DHT22;10902;48.158;8.634;2023-05-07T00:50:57;9.90;99.90
21481;DHT22;10902;48.158;8.634;2023-05-07T00:53:22;9.80;99.90
21481;DHT22;10902;48.158;8.634;2023-05-07T00:55:48;9.80;99.90
21481;DHT22;10902;48.158;8.634;2023-05-07T00:58:14;9.80;99.90
21481;DHT22;10902;48.158;8.634;2023-05-07T01:00:40;9.80;99.90
21481;DHT22;10902;48.158;8.634;2023-05-07T01:03:05;9.80;99.90
21481;DHT22;10902;48.158;8.634;2023-05-07T01:05:31;9.70;99.90
21481;DHT22;10902;48.158;8.634;2023-05-07T01:07:57;9.70;99.90
21481;DHT22;10902;48.158;8.634;2023-05-07T01:10:24;9.70;99.90
21481;DHT22;10902;48.158;8.634;2023-05-07T01:12:50;9.60;99.90
21481;DHT22;10902;48.158;8.634;2023-05-07T01:15:16;9.60;99.90
21481;DHT22;10902;48.158;8.634;2023-05-07T01:17:43;9.60;99.90
21481;DHT22;10902;48.158;8.634;2023-05-07T01:20:10;9.60;99.90
21481;DHT22;10902;48.158;8.634;2023-05-07T01:22:37;9.60;99.90
21481;DHT22;10902;48.158;8.634;2023-05-07T01:25:06;9.60;99.90
21481;DHT22;10902;48.158;8.634;2023-05-07T01:27:33;9.50;99.90
21481;DHT22;10902;48.158;8.634;2023-05-07T01:29:59;9.50;99.90
21481;DHT22;10902;48.158;8.634;2023-05-07T01:32:38;9.40;99.90
21481;DHT22;10902;48.158;8.634;2023-05-07T01:35:10;9.40;99.90
21481;DHT22;10902;48.158;8.634;2023-05-07T01:37:36;9.30;99.90
21481;DHT22;10902;48.158;8.634;2023-05-07T01:40:03;9.30;99.90
21481;DHT22;10902;48.158;8.634;2023-05-07T01:42:30;9.40;99.90
21481;DHT22;10902;48.158;8.634;2023-05-07T01:44:56;9.40;99.90
21481;DHT22;10902;48.158;8.634;2023-05-07T01:47:22;9.40;99.90
21481;DHT22;10902;48.158;8.634;2023-05-07T01:49:48;9.40;99.90
21481;DHT22;10902;48.158;8.634;2023-05-07T01:52:14;9.30;99.90
21481;DHT22;10902;48.158;8.634;2023-05-07T01:54:39;9.30;99.90
21481;DHT22;10902;48.158;8.634;2023-05-07T01:57:05;9.20;99.90
21481;DHT22;10902;48.158;8.634;2023-05-07T01:59:31;9.10;99.90
21481;DHT22;10902;48.158;8.634;2023-05-07T02:01:56;9.10;99.90
21481;DHT22;10902;48.158;8.634;2023-05-07T02:04:22;9.00;99.90
21481;DHT22;10902;48.158;8.634;2023-05-07T02:06:47;8.90;99.90
21481;DHT22;10902;48.158;8.634;2023-05-07T02:09:13;9.00;99.90
21481;DHT22;10902;48.158;8.634;2023-05-07T02:11:40;9.00;99.90
21481;DHT22;10902;48.158;8.634;2023-05-07T02:14:05;9.00;99.90
21481;DHT22;10902;48.158;8.634;2023-05-07T02:16:31;9.00;99.90
21481;DHT22;10902;48.158;8.634;2023-05-07T02:18:56;9.00;99.90
21481;DHT22;10902;48.158;8.634;2023-05-07T02:21:23;8.90;99.90
21481;DHT22;10902;48.158;8.634;2023-05-07T02:23:49;8.80;99.90
21481;DHT22;10902;48.158;8.634;2023-05-07T02:26:14;8.80;99.90
21481;DHT22;10902;48.158;8.634;2023-05-07T02:28:40;8.80;99.90
21481;DHT22;10902;48.158;8.634;2023-05-07T02:31:05;8.70;99.90
21481;DHT22;10902;48.158;8.634;2023-05-07T02:33:31;8.70;99.90
21481;DHT22;10902;48.158;8.634;2023-05-07T02:35:57;8.70;99.90
21481;DHT22;10902;48.158;8.634;2023-05-07T02:38:30;8.70;99.90
21481;DHT22;10902;48.158;8.634;2023-05-07T02:40:55;8.60;99.90
21481;DHT22;10902;48.158;8.634;2023-05-07T02:43:21;8.80;99.90
21481;DHT22;10902;48.158;8.634;2023-05-07T02:45:46;8.80;99.90
21481;DHT22;10902;48.158;8.634;2023-05-07T02:48:12;8.80;99.90
21481;DHT22;10902;48.158;8.634;2023-05-07T02:50:37;8.80;99.90
21481;DHT22;10902;48.158;8.634;2023-05-07T02:53:03;8.70;99.90
21481;DHT22;10902;48.158;8.634;2023-05-07T02:55:28;8.60;99.90
21481;DHT22;10902;48.158;8.634;2023-05-07T02:57:54;8.50;99.90
21481;DHT22;10902;48.158;8.634;2023-05-07T03:00:20;8.60;99.90
21481;DHT22;10902;48.158;8.634;2023-05-07T03:02:46;8.60;99.90
21481;DHT22;10902;48.158;8.634;2023-05-07T03:05:12;8.60;99.90
21481;DHT22;10902;48.158;8.634;2023-05-07T03:07:38;8.50;99.90
21481;DHT22;10902;48.158;8.634;2023-05-07T03:10:04;8.50;99.90
21481;DHT22;10902;48.158;8.634;2023-05-07T03:12:30;8.50;99.90
21481;DHT22;10902;48.158;8.634;2023-05-07T03:14:56;8.40;99.90
21481;DHT22;10902;48.158;8.634;2023-05-07T03:17:22;8.50;99.90
21481;DHT22;10902;48.158;8.634;2023-05-07T03:19:48;8.40;99.90
21481;DHT22;10902;48.158;8.634;2023-05-07T03:22:13;8.50;99.90
21481;DHT22;10902;48.158;8.634;2023-05-07T03:24:39;8.50;99.90
21481;DHT22;10902;48.158;8.634;2023-05-07T03:27:05;8.50;99.90
21481;DHT22;10902;48.158;8.634;2023-05-07T03:29:30;8.50;99.90
21481;DHT22;10902;48.158;8.634;2023-05-07T03:31:56;8.40;99.90
21481;DHT22;10902;48.158;8.634;2023-05-07T03:34:21;8.40;99.90
21481;DHT22;10902;48.158;8.634;2023-05-07T03:36:50;8.30;99.90
21481;DHT22;10902;48.158;8.634;2023-05-07T03:39:16;8.20;99.90
21481;DHT22;10902;48.158;8.634;2023-05-07T03:41:42;8.20;99.90
21481;DHT22;10902;48.158;8.634;2023-05-07T03:44:07;8.20;99.90
21481;DHT22;10902;48.158;8.634;2023-05-07T03:46:33;8.10;99.90
21481;DHT22;10902;48.158;8.634;2023-05-07T03:48:59;8.20;99.90
21481;DHT22;10902;48.158;8.634;2023-05-07T03:51:25;8.10;99.90
21481;DHT22;10902;48.158;8.634;2023-05-07T03:53:51;8.10;99.90
21481;DHT22;10902;48.158;8.634;2023-05-07T03:56:18;8.00;99.90
21481;DHT22;10902;48.158;8.634;2023-05-07T03:58:44;8.00;99.90
21481;DHT22;10902;48.158;8.634;2023-05-07T04:01:10;8.10;99.90
21481;DHT22;10902;48.158;8.634;2023-05-07T04:03:36;8.20;99.90
21481;DHT22;10902;48.158;8.634;2023-05-07T04:06:02;8.30;99.90
21481;DHT22;10902;48.158;8.634;2023-05-07T04:08:28;8.20;99.90
21481;DHT22;10902;48.158;8.634;2023-05-07T04:10:57;8.20;99.90
21481;DHT22;10902;48.158;8.634;2023-05-07T04:13:23;8.30;99.90
21481;DHT22;10902;48.158;8.634;2023-05-07T04:15:49;8.30;99.90
21481;DHT22;10902;48.158;8.634;2023-05-07T04:18:15;8.30;99.90
21481;DHT22;10902;48.158;8.634;2023-05-07T04:20:41;8.20;99.90
21481;DHT22;10902;48.158;8.634;2023-05-07T04:23:06;8.20;99.90
21481;DHT22;10902;48.158;8.634;2023-05-07T04:25:32;8.30;99.90
21481;DHT22;10902;48.158;8.634;2023-05-07T04:27:58;8.30;99.90
21481;DHT22;10902;48.158;8.634;2023-05-07T04:30:24;8.30;99.90
21481;DHT22;10902;48.158;8.634;2023-05-07T04:32:49;8.30;99.90
21481;DHT22;10902;48.158;8.634;2023-05-07T04:35:15;8.30;99.90
21481;DHT22;10902;48.158;8.634;2023-05-07T04:37:41;8.20;99.90
21481;DHT22;10902;48.158;8.634;2023-05-07T04:40:07;8.20;99.90
21481;DHT22;10902;48.158;8.634;2023-05-07T04:42:32;8.20;99.90
21481;DHT22;10902;48.158;8.634;2023-05-07T04:44:58;8.10;99.90
21481;DHT22;10902;48.158;8.634;2023-05-07T04:47:24;8.10;99.90
21481;DHT22;10902;48.158;8.634;2023-05-07T04:49:49;8.00;99.90
21481;DHT22;10902;48.158;8.634;2023-05-07T04:52:15;8.00;99.90
21481;DHT22;10902;48.158;8.634;2023-05-07T04:54:41;7.90;99.90
21481;DHT22;10902;48.158;8.634;2023-05-07T04:57:06;8.00;99.90
21481;DHT22;10902;48.158;8.634;2023-05-07T04:59:33;8.00;99.90
21481;DHT22;10902;48.158;8.634;2023-05-07T05:01:58;8.00;99.90
21481;DHT22;10902;48.158;8.634;2023-05-07T05:04:24;8.00;99.90
21481;DHT22;10902;48.158;8.634;2023-05-07T05:06:49;8.00;99.90
21481;DHT22;10902;48.158;8.634;2023-05-07T05:09:15;8.00;99.90
21481;DHT22;10902;48.158;8.634;2023-05-07T05:11:41;8.00;99.90
21481;DHT22;10902;48.158;8.634;2023-05-07T05:14:07;8.00;99.90
21481;DHT22;10902;48.158;8.634;2023-05-07T05:16:33;8.10;99.90
21481;DHT22;10902;48.158;8.634;2023-05-07T05:19:01;8.10;99.90
21481;DHT22;10902;48.158;8.634;2023-05-07T05:21:26;8.20;99.90
21481;DHT22;10902;48.158;8.634;2023-05-07T05:23:52;8.20;99.90
21481;DHT22;10902;48.158;8.634;2023-05-07T05:26:17;8.30;99.90
21481;DHT22;10902;48.158;8.634;2023-05-07T05:28:43;8.60;99.90
21481;DHT22;10902;48.158;8.634;2023-05-07T05:31:10;8.70;99.90
21481;DHT22;10902;48.158;8.634;2023-05-07T05:33:35;8.80;99.90
21481;DHT22;10902;48.158;8.634;2023-05-07T05:36:01;9.00;99.90
21481;DHT22;10902;48.158;8.634;2023-05-07T05:38:27;9.30;99.90
21481;DHT22;10902;48.158;8.634;2023-05-07T05:40:52;9.50;99.90
21481;DHT22;10902;48.158;8.634;2023-05-07T05:43:18;9.90;99.90
21481;DHT22;10902;48.158;8.634;2023-05-07T05:45:43;10.10;99.90
21481;DHT22;10902;48.158;8.634;2023-05-07T05:48:09;10.30;99.90
21481;DHT22;10902;48.158;8.634;2023-05-07T05:50:35;10.30;99.90
21481;DHT22;10902;48.158;8.634;2023-05-07T05:53:03;10.50;99.90
21481;DHT22;10902;48.158;8.634;2023-05-07T05:55:29;10.60;99.90
21481;DHT22;10902;48.158;8.634;2023-05-07T05:57:55;10.70;99.90
21481;DHT22;10902;48.158;8.634;2023-05-07T06:00:22;10.90;99.90
21481;DHT22;10902;48.158;8.634;2023-05-07T06:02:48;11.30;99.90
21481;DHT22;10902;48.158;8.634;2023-05-07T06:05:14;11.30;99.90
21481;DHT22;10902;48.158;8.634;2023-05-07T06:07:40;11.20;99.90
21481;DHT22;10902;48.158;8.634;2023-05-07T06:10:06;11.10;99.90
21481;DHT22;10902;48.158;8.634;2023-05-07T06:12:32;11.10;99.90
21481;DHT22;10902;48.158;8.634;2023-05-07T06:14:57;11.20;99.90
21481;DHT22;10902;48.158;8.634;2023-05-07T06:17:23;11.40;99.90
21481;DHT22;10902;48.158;8.634;2023-05-07T06:19:49;11.60;99.90
21481;DHT22;10902;48.158;8.634;2023-05-07T06:22:14;11.80;99.90
21481;DHT22;10902;48.158;8.634;2023-05-07T06:24:40;12.10;99.90
21481;DHT22;10902;48.158;8.634;2023-05-07T06:27:05;12.40;99.90
21481;DHT22;10902;48.158;8.634;2023-05-07T06:29:31;12.80;99.90
21481;DHT22;10902;48.158;8.634;2023-05-07T06:32:06;12.80;99.90
21481;DHT22;10902;48.158;8.634;2023-05-07T06:34:35;13.00;99.90
21481;DHT22;10902;48.158;8.634;2023-05-07T06:37:01;13.10;99.90
21481;DHT22;10902;48.158;8.634;2023-05-07T06:39:27;13.50;99.90
21481;DHT22;10902;48.158;8.634;2023-05-07T06:41:55;13.50;99.90
21481;DHT22;10902;48.158;8.634;2023-05-07T06:44:21;13.60;99.90
21481;DHT22;10902;48.158;8.634;2023-05-07T06:46:46;13.50;99.90
21481;DHT22;10902;48.158;8.634;2023-05-07T06:49:13;13.30;99.90
21481;DHT22;10902;48.158;8.634;2023-05-07T06:51:39;13.30;99.90
21481;DHT22;10902;48.158;8.634;2023-05-07T06:54:05;13.10;99.90
21481;DHT22;10902;48.158;8.634;2023-05-07T06:56:31;13.00;99.90
21481;DHT22;10902;48.158;8.634;2023-05-07T06:58:57;12.90;99.90
21481;DHT22;10902;48.158;8.634;2023-05-07T07:01:22;13.00;99.90
21481;DHT22;10902;48.158;8.634;2023-05-07T07:03:48;12.90;99.90
21481;DHT22;10902;48.158;8.634;2023-05-07T07:06:14;13.10;99.90
21481;DHT22;10902;48.158;8.634;2023-05-07T07:08:40;13.30;99.90
21481;DHT22;10902;48.158;8.634;2023-05-07T07:11:07;13.60;99.90
21481;DHT22;10902;48.158;8.634;2023-05-07T07:13:33;14.00;99.90
21481;DHT22;10902;48.158;8.634;2023-05-07T07:15:59;14.10;99.90
21481;DHT22;10902;48.158;8.634;2023-05-07T07:18:25;14.50;99.90
21481;DHT22;10902;48.158;8.634;2023-05-07T07:20:51;14.50;99.90
21481;DHT22;10902;48.158;8.634;2023-05-07T07:23:16;15.00;99.90
21481;DHT22;10902;48.158;8.634;2023-05-07T07:25:42;15.60;99.90
21481;DHT22;10902;48.158;8.634;2023-05-07T07:28:08;16.20;99.90
21481;DHT22;10902;48.158;8.634;2023-05-07T07:30:33;16.90;99.90
21481;DHT22;10902;48.158;8.634;2023-05-07T07:32:59;16.70;99.90
21481;DHT22;10902;48.158;8.634;2023-05-07T07:35:35;16.60;99.90
21481;DHT22;10902;48.158;8.634;2023-05-07T07:38:00;16.60;99.90
21481;DHT22;10902;48.158;8.634;2023-05-07T07:40:26;16.90;99.90
21481;DHT22;10902;48.158;8.634;2023-05-07T07:42:53;16.70;99.90
21481;DHT22;10902;48.158;8.634;2023-05-07T07:45:19;16.70;99.90
21481;DHT22;10902;48.158;8.634;2023-05-07T07:47:44;16.80;99.90
21481;DHT22;10902;48.158;8.634;2023-05-07T07:50:10;17.40;99.90
21481;DHT22;10902;48.158;8.634;2023-05-07T07:52:36;17.10;99.90
21481;DHT22;10902;48.158;8.634;2023-05-07T07:55:02;17.10;99.90
21481;DHT22;10902;48.158;8.634;2023-05-07T07:57:27;17.50;99.90
21481;DHT22;10902;48.158;8.634;2023-05-07T07:59:53;18.10;99.90
21481;DHT22;10902;48.158;8.634;2023-05-07T08:02:18;18.20;99.90
21481;DHT22;10902;48.158;8.634;2023-05-07T08:04:44;18.20;99.90
21481;DHT22;10902;48.158;8.634;2023-05-07T08:07:10;18.00;99.90
21481;DHT22;10902;48.158;8.634;2023-05-07T08:09:37;17.90;99.90
21481;DHT22;10902;48.158;8.634;2023-05-07T08:12:04;17.90;99.90
21481;DHT22;10902;48.158;8.634;2023-05-07T08:14:29;18.20;99.90
21481;DHT22;10902;48.158;8.634;2023-05-07T08:16:55;18.10;99.90
21481;DHT22;10902;48.158;8.634;2023-05-07T08:19:21;18.30;99.90
21481;DHT22;10902;48.158;8.634;2023-05-07T08:21:47;18.50;99.90
21481;DHT22;10902;48.158;8.634;2023-05-07T08:24:17;18.70;99.90
21481;DHT22;10902;48.158;8.634;2023-05-07T08:26:46;18.70;99.90
21481;DHT22;10902;48.158;8.634;2023-05-07T08:29:11;18.80;99.90
21481;DHT22;10902;48.158;8.634;2023-05-07T08:31:37;19.00;99.90
21481;DHT22;10902;48.158;8.634;2023-05-07T08:34:04;18.80;99.90
21481;DHT22;10902;48.158;8.634;2023-05-07T08:36:30;18.90;99.90
21481;DHT22;10902;48.158;8.634;2023-05-07T08:38:56;19.10;99.90
21481;DHT22;10902;48.158;8.634;2023-05-07T08:41:22;19.40;99.90
21481;DHT22;10902;48.158;8.634;2023-05-07T08:43:49;19.70;99.90
21481;DHT22;10902;48.158;8.634;2023-05-07T08:46:22;19.40;99.90
21481;DHT22;10902;48.158;8.634;2023-05-07T08:48:49;19.20;99.90
21481;DHT22;10902;48.158;8.634;2023-05-07T08:51:18;19.40;99.90
21481;DHT22;10902;48.158;8.634;2023-05-07T08:53:44;19.50;99.90
21481;DHT22;10902;48.158;8.634;2023-05-07T08:56:10;19.30;99.90
21481;DHT22;10902;48.158;8.634;2023-05-07T08:58:35;19.30;99.90
21481;DHT22;10902;48.158;8.634;2023-05-07T09:01:05;19.60;99.90
21481;DHT22;10902;48.158;8.634;2023-05-07T09:03:32;19.30;99.90
21481;DHT22;10902;48.158;8.634;2023-05-07T09:05:58;19.40;99.90
21481;DHT22;10902;48.158;8.634;2023-05-07T09:08:27;20.10;99.90
21481;DHT22;10902;48.158;8.634;2023-05-07T09:10:53;20.90;99.90
21481;DHT22;10902;48.158;8.634;2023-05-07T09:13:19;21.30;99.90
21481;DHT22;10902;48.158;8.634;2023-05-07T09:15:45;21.30;99.90
21481;DHT22;10902;48.158;8.634;2023-05-07T09:18:12;21.20;99.90
21481;DHT22;10902;48.158;8.634;2023-05-07T09:20:38;20.90;99.90
21481;DHT22;10902;48.158;8.634;2023-05-07T09:23:05;21.00;99.90
21481;DHT22;10902;48.158;8.634;2023-05-07T09:25:33;21.00;99.90
21481;DHT22;10902;48.158;8.634;2023-05-07T09:27:59;21.60;99.90
21481;DHT22;10902;48.158;8.634;2023-05-07T09:30:32;21.90;99.90
21481;DHT22;10902;48.158;8.634;2023-05-07T09:32:59;22.90;99.90
21481;DHT22;10902;48.158;8.634;2023-05-07T09:35:26;22.90;99.90
21481;DHT22;10902;48.158;8.634;2023-05-07T09:37:58;22.70;99.90
21481;DHT22;10902;48.158;8.634;2023-05-07T09:40:25;23.10;99.90
21481;DHT22;10902;48.158;8.634;2023-05-07T09:42:51;22.70;99.90
21481;DHT22;10902;48.158;8.634;2023-05-07T09:45:27;23.40;99.90
21481;DHT22;10902;48.158;8.634;2023-05-07T09:47:57;24.30;99.90
21481;DHT22;10902;48.158;8.634;2023-05-07T09:50:35;24.00;99.90
21481;DHT22;10902;48.158;8.634;2023-05-07T09:53:03;24.70;99.90
21481;DHT22;10902;48.158;8.634;2023-05-07T09:55:29;24.40;99.90
21481;DHT22;10902;48.158;8.634;2023-05-07T09:57:55;23.40;99.90
21481;DHT22;10902;48.158;8.634;2023-05-07T10:00:22;22.80;99.90
21481;DHT22;10902;48.158;8.634;2023-05-07T10:02:49;22.80;99.90
21481;DHT22;10902;48.158;8.634;2023-05-07T10:05:18;23.30;99.90
21481;DHT22;10902;48.158;8.634;2023-05-07T10:07:44;23.10;99.90
21481;DHT22;10902;48.158;8.634;2023-05-07T10:10:10;22.90;99.90
21481;DHT22;10902;48.158;8.634;2023-05-07T10:12:36;22.50;99.90
21481;DHT22;10902;48.158;8.634;2023-05-07T10:15:08;22.20;99.90
21481;DHT22;10902;48.158;8.634;2023-05-07T10:17:36;22.00;99.90
21481;DHT22;10902;48.158;8.634;2023-05-07T10:20:02;21.90;99.90
21481;DHT22;10902;48.158;8.634;2023-05-07T10:22:31;21.90;99.90
21481;DHT22;10902;48.158;8.634;2023-05-07T10:24:59;21.70;99.90
21481;DHT22;10902;48.158;8.634;2023-05-07T10:27:27;21.20;99.90
21481;DHT22;10902;48.158;8.634;2023-05-07T10:32:39;21.90;99.90
21481;DHT22;10902;48.158;8.634;2023-05-07T10:35:10;22.70;99.90
21481;DHT22;10902;48.158;8.634;2023-05-07T10:37:40;23.90;99.90
21481;DHT22;10902;48.158;8.634;2023-05-07T10:40:06;24.00;99.90
21481;DHT22;10902;48.158;8.634;2023-05-07T10:42:32;24.40;99.90
21481;DHT22;10902;48.158;8.634;2023-05-07T10:44:58;24.80;99.90
21481;DHT22;10902;48.158;8.634;2023-05-07T10:47:36;24.80;99.90
21481;DHT22;10902;48.158;8.634;2023-05-07T10:50:22;24.20;99.90
21481;DHT22;10902;48.158;8.634;2023-05-07T10:55:43;23.80;99.90
21481;DHT22;10902;48.158;8.634;2023-05-07T11:00:50;22.60;99.90
21481;DHT22;10902;48.158;8.634;2023-05-07T11:03:16;22.50;99.90
21481;DHT22;10902;48.158;8.634;2023-05-07T11:05:42;22.20;99.90
21481;DHT22;10902;48.158;8.634;2023-05-07T11:08:09;21.80;99.90
21481;DHT22;10902;48.158;8.634;2023-05-07T11:13:14;21.20;99.90
21481;DHT22;10902;48.158;8.634;2023-05-07T11:15:42;20.80;99.90
21481;DHT22;10902;48.158;8.634;2023-05-07T11:18:08;20.50;99.90
21481;DHT22;10902;48.158;8.634;2023-05-07T11:20:44;20.00;99.90
21481;DHT22;10902;48.158;8.634;2023-05-07T11:26:01;19.20;99.90
21481;DHT22;10902;48.158;8.634;2023-05-07T11:28:28;18.20;99.90
21481;DHT22;10902;48.158;8.634;2023-05-07T11:30:54;17.20;99.90
21481;DHT22;10902;48.158;8.634;2023-05-07T11:33:20;16.30;99.90
21481;DHT22;10902;48.158;8.634;2023-05-07T11:35:46;15.90;99.90
21481;DHT22;10902;48.158;8.634;2023-05-07T11:38:13;15.70;99.90
21481;DHT22;10902;48.158;8.634;2023-05-07T11:40:52;15.30;99.90
21481;DHT22;10902;48.158;8.634;2023-05-07T11:43:18;15.10;99.90
21481;DHT22;10902;48.158;8.634;2023-05-07T11:45:48;15.30;99.90
21481;DHT22;10902;48.158;8.634;2023-05-07T11:48:15;15.60;99.90
21481;DHT22;10902;48.158;8.634;2023-05-07T11:51:04;15.20;99.90
21481;DHT22;10902;48.158;8.634;2023-05-07T11:53:38;15.30;99.90
21481;DHT22;10902;48.158;8.634;2023-05-07T11:56:15;14.90;99.90
21481;DHT22;10902;48.158;8.634;2023-05-07T11:58:41;14.70;99.90
21481;DHT22;10902;48.158;8.634;2023-05-07T12:01:09;14.50;99.90
21481;DHT22;10902;48.158;8.634;2023-05-07T12:03:40;14.30;99.90
21481;DHT22;10902;48.158;8.634;2023-05-07T12:06:10;14.00;99.90
21481;DHT22;10902;48.158;8.634;2023-05-07T12:08:38;13.80;99.90
21481;DHT22;10902;48.158;8.634;2023-05-07T12:11:03;13.80;99.90
21481;DHT22;10902;48.158;8.634;2023-05-07T12:13:32;13.80;99.90
21481;DHT22;10902;48.158;8.634;2023-05-07T12:15:57;13.70;99.90
21481;DHT22;10902;48.158;8.634;2023-05-07T12:18:23;13.60;99.90
21481;DHT22;10902;48.158;8.634;2023-05-07T12:20:50;13.50;99.90
21481;DHT22;10902;48.158;8.634;2023-05-07T12:23:16;13.40;99.90
21481;DHT22;10902;48.158;8.634;2023-05-07T12:25:43;13.40;99.90
21481;DHT22;10902;48.158;8.634;2023-05-07T12:28:13;13.30;99.90
21481;DHT22;10902;48.158;8.634;2023-05-07T12:30:42;13.20;99.90
21481;DHT22;10902;48.158;8.634;2023-05-07T12:33:08;13.10;99.90
21481;DHT22;10902;48.158;8.634;2023-05-07T12:35:39;13.00;99.90
21481;DHT22;10902;48.158;8.634;2023-05-07T12:38:13;13.10;99.90
21481;DHT22;10902;48.158;8.634;2023-05-07T12:40:47;13.10;99.90
21481;DHT22;10902;48.158;8.634;2023-05-07T12:43:17;13.00;99.90
21481;DHT22;10902;48.158;8.634;2023-05-07T12:45:44;13.00;99.90
21481;DHT22;10902;48.158;8.634;2023-05-07T12:48:11;13.10;99.90
21481;DHT22;10902;48.158;8.634;2023-05-07T12:50:36;13.30;99.90
21481;DHT22;10902;48.158;8.634;2023-05-07T12:53:06;13.30;99.90
21481;DHT22;10902;48.158;8.634;2023-05-07T12:55:44;13.40;99.90
21481;DHT22;10902;48.158;8.634;2023-05-07T12:58:33;13.60;99.90
21481;DHT22;10902;48.158;8.634;2023-05-07T13:01:00;13.60;99.90
21481;DHT22;10902;48.158;8.634;2023-05-07T13:03:29;13.60;99.90
21481;DHT22;10902;48.158;8.634;2023-05-07T13:05:56;13.60;99.90
21481;DHT22;10902;48.158;8.634;2023-05-07T13:10:51;13.90;99.90
21481;DHT22;10902;48.158;8.634;2023-05-07T13:13:16;14.00;99.90
21481;DHT22;10902;48.158;8.634;2023-05-07T13:15:42;14.10;99.90
21481;DHT22;10902;48.158;8.634;2023-05-07T13:18:08;14.10;99.90
21481;DHT22;10902;48.158;8.634;2023-05-07T13:20:35;14.30;99.90
21481;DHT22;10902;48.158;8.634;2023-05-07T13:23:01;14.40;99.90
21481;DHT22;10902;48.158;8.634;2023-05-07T13:25:27;14.60;99.90
21481;DHT22;10902;48.158;8.634;2023-05-07T13:27:53;15.00;99.90
21481;DHT22;10902;48.158;8.634;2023-05-07T13:30:18;15.40;99.90
21481;DHT22;10902;48.158;8.634;2023-05-07T13:32:44;16.00;99.90
21481;DHT22;10902;48.158;8.634;2023-05-07T13:35:10;16.60;99.90
21481;DHT22;10902;48.158;8.634;2023-05-07T13:37:36;17.50;99.90
21481;DHT22;10902;48.158;8.634;2023-05-07T13:40:02;18.80;99.90
21481;DHT22;10902;48.158;8.634;2023-05-07T13:42:27;20.60;99.90
21481;DHT22;10902;48.158;8.634;2023-05-07T13:44:53;21.70;99.90
21481;DHT22;10902;48.158;8.634;2023-05-07T13:47:18;23.70;99.90
21481;DHT22;10902;48.158;8.634;2023-05-07T13:49:44;25.10;99.90
21481;DHT22;10902;48.158;8.634;2023-05-07T13:52:10;25.90;99.90
21481;DHT22;10902;48.158;8.634;2023-05-07T13:54:36;26.00;99.90
21481;DHT22;10902;48.158;8.634;2023-05-07T13:57:02;25.80;99.90
21481;DHT22;10902;48.158;8.634;2023-05-07T13:59:27;25.90;99.90
21481;DHT22;10902;48.158;8.634;2023-05-07T14:01:53;25.40;99.90
21481;DHT22;10902;48.158;8.634;2023-05-07T14:04:20;24.20;99.90
21481;DHT22;10902;48.158;8.634;2023-05-07T14:06:45;23.20;99.90
21481;DHT22;10902;48.158;8.634;2023-05-07T14:09:11;21.40;99.90
21481;DHT22;10902;48.158;8.634;2023-05-07T14:11:38;20.80;99.90
21481;DHT22;10902;48.158;8.634;2023-05-07T14:14:05;19.90;99.90
21481;DHT22;10902;48.158;8.634;2023-05-07T14:16:30;19.60;99.90
21481;DHT22;10902;48.158;8.634;2023-05-07T14:18:56;18.90;99.90
21481;DHT22;10902;48.158;8.634;2023-05-07T14:21:22;18.30;99.90
21481;DHT22;10902;48.158;8.634;2023-05-07T14:23:47;17.80;99.90
21481;DHT22;10902;48.158;8.634;2023-05-07T14:26:13;17.50;99.90
21481;DHT22;10902;48.158;8.634;2023-05-07T14:28:39;17.30;99.90
21481;DHT22;10902;48.158;8.634;2023-05-07T14:31:05;17.00;99.90
21481;DHT22;10902;48.158;8.634;2023-05-07T14:33:31;16.90;99.90
21481;DHT22;10902;48.158;8.634;2023-05-07T14:35:57;17.10;99.90
21481;DHT22;10902;48.158;8.634;2023-05-07T14:38:22;17.40;99.90
21481;DHT22;10902;48.158;8.634;2023-05-07T14:40:48;17.50;99.90
21481;DHT22;10902;48.158;8.634;2023-05-07T14:43:14;17.60;99.90
21481;DHT22;10902;48.158;8.634;2023-05-07T14:45:39;17.30;99.90
21481;DHT22;10902;48.158;8.634;2023-05-07T14:48:05;16.80;99.90
21481;DHT22;10902;48.158;8.634;2023-05-07T14:50:30;16.80;99.90
21481;DHT22;10902;48.158;8.634;2023-05-07T14:52:56;16.80;99.90
21481;DHT22;10902;48.158;8.634;2023-05-07T14:55:22;16.80;99.90
21481;DHT22;10902;48.158;8.634;2023-05-07T14:57:47;16.80;99.90
21481;DHT22;10902;48.158;8.634;2023-05-07T15:00:13;16.90;99.90
21481;DHT22;10902;48.158;8.634;2023-05-07T15:02:39;16.90;99.90
21481;DHT22;10902;48.158;8.634;2023-05-07T15:05:04;16.90;99.90
21481;DHT22;10902;48.158;8.634;2023-05-07T15:07:30;17.10;99.90
21481;DHT22;10902;48.158;8.634;2023-05-07T15:09:59;17.10;99.90
21481;DHT22;10902;48.158;8.634;2023-05-07T15:12:25;17.00;99.90
21481;DHT22;10902;48.158;8.634;2023-05-07T15:14:50;16.90;99.90
21481;DHT22;10902;48.158;8.634;2023-05-07T15:17:16;16.90;99.90
21481;DHT22;10902;48.158;8.634;2023-05-07T15:19:42;16.70;99.90
21481;DHT22;10902;48.158;8.634;2023-05-07T15:22:07;16.70;99.90
21481;DHT22;10902;48.158;8.634;2023-05-07T15:24:33;16.70;99.90
21481;DHT22;10902;48.158;8.634;2023-05-07T15:26:58;16.70;99.90
21481;DHT22;10902;48.158;8.634;2023-05-07T15:29:24;16.80;99.90
21481;DHT22;10902;48.158;8.634;2023-05-07T15:31:50;17.10;99.90
21481;DHT22;10902;48.158;8.634;2023-05-07T15:34:17;17.10;99.90
21481;DHT22;10902;48.158;8.634;2023-05-07T15:36:43;17.20;99.90
21481;DHT22;10902;48.158;8.634;2023-05-07T15:39:08;17.10;99.90
21481;DHT22;10902;48.158;8.634;2023-05-07T15:41:35;17.20;99.90
21481;DHT22;10902;48.158;8.634;2023-05-07T15:44:02;17.50;99.90
21481;DHT22;10902;48.158;8.634;2023-05-07T15:46:27;17.70;99.90
21481;DHT22;10902;48.158;8.634;2023-05-07T15:48:53;18.00;99.90